createdAt,value
2022-10-08T00:02:47.224Z,12.92
2022-10-08T00:05:23.789Z,12.88
2022-10-08T00:07:57.832Z,12.95
2022-10-08T00:10:25.710Z,12.86
2022-10-08T00:12:54.672Z,12.72
2022-10-08T00:15:21.406Z,12.90
2022-10-08T00:17:49.217Z,12.83
2022-10-08T00:20:17.421Z,12.79
2022-10-08T00:22:44.757Z,12.73
2022-10-08T00:25:11.996Z,12.64
2022-10-08T00:27:39.859Z,12.61
2022-10-08T00:30:07.955Z,12.61
2022-10-08T00:32:36.706Z,12.75
2022-10-08T00:35:04.823Z,12.76
2022-10-08T00:37:38.833Z,12.72
2022-10-08T00:40:07.971Z,12.77
2022-10-08T00:42:34.912Z,12.74
2022-10-08T00:45:02.077Z,12.87
2022-10-08T00:47:29.901Z,12.87
2022-10-08T00:49:59.385Z,12.85
2022-10-08T00:52:29.056Z,12.82
2022-10-08T00:54:57.603Z,12.76
2022-10-08T00:57:24.569Z,12.91
2022-10-08T00:59:51.452Z,12.84
2022-10-08T01:02:19.721Z,12.76
2022-10-08T01:04:47.585Z,12.77
2022-10-08T01:07:35.162Z,12.75
2022-10-08T01:10:11.174Z,12.72
2022-10-08T01:13:02.352Z,12.65
2022-10-08T01:15:33.968Z,12.64
2022-10-08T01:18:12.429Z,12.59
2022-10-08T01:20:59.453Z,12.65
2022-10-08T01:23:29.008Z,12.60
2022-10-08T01:26:14.706Z,12.60
2022-10-08T01:29:03.233Z,12.61
2022-10-08T01:31:34.223Z,12.65
2022-10-08T01:34:08.229Z,12.47
2022-10-08T01:36:38.942Z,12.42
2022-10-08T01:39:11.156Z,12.44
2022-10-08T01:41:46.613Z,12.50
2022-10-08T01:44:18.327Z,12.49
2022-10-08T01:46:53.559Z,12.52
2022-10-08T01:49:32.070Z,12.54
2022-10-08T01:52:04.838Z,12.43
2022-10-08T01:54:33.523Z,12.42
2022-10-08T01:57:03.427Z,12.34
2022-10-08T01:59:53.364Z,12.29
2022-10-08T02:02:25.466Z,12.48
2022-10-08T02:04:54.256Z,12.41
2022-10-08T02:07:26.071Z,12.17
2022-10-08T02:10:09.023Z,12.17
2022-10-08T02:12:36.445Z,12.07
2022-10-08T02:15:04.783Z,12.09
2022-10-08T02:17:46.538Z,12.06
2022-10-08T02:20:22.624Z,12.03
2022-10-08T02:23:01.808Z,11.96
2022-10-08T02:25:37.488Z,11.91
2022-10-08T02:28:30.396Z,11.86
2022-10-08T02:31:17.257Z,11.87
2022-10-08T02:33:47.258Z,11.86
2022-10-08T02:36:16.904Z,11.75
2022-10-08T02:38:52.106Z,11.69
2022-10-08T02:41:26.819Z,11.63
2022-10-08T02:43:53.736Z,11.47
2022-10-08T02:46:22.678Z,11.55
2022-10-08T02:48:57.804Z,11.51
2022-10-08T02:51:25.464Z,11.62
2022-10-08T02:53:52.886Z,11.55
2022-10-08T02:56:33.569Z,11.74
2022-10-08T02:59:01.805Z,11.98
2022-10-08T03:01:35.907Z,12.09
2022-10-08T03:04:23.138Z,12.35
2022-10-08T03:06:52.065Z,12.59
2022-10-08T03:09:29.638Z,12.71
2022-10-08T03:12:34.697Z,12.82
2022-10-08T03:15:02.523Z,12.91
2022-10-08T03:17:47.871Z,12.93
2022-10-08T03:20:15.357Z,13.04
2022-10-08T03:22:43.468Z,13.09
2022-10-08T03:25:10.301Z,13.15
2022-10-08T03:27:37.144Z,13.16
2022-10-08T03:30:04.490Z,13.22
2022-10-08T03:32:40.476Z,13.26
2022-10-08T03:35:16.546Z,13.27
2022-10-08T03:37:43.498Z,13.31
2022-10-08T03:40:16.188Z,13.35
2022-10-08T03:42:44.170Z,13.34
2022-10-08T03:45:11.324Z,13.40
2022-10-08T03:47:39.301Z,13.40
2022-10-08T03:50:11.380Z,13.44
2022-10-08T03:52:40.487Z,13.47
2022-10-08T03:55:09.559Z,13.46
2022-10-08T03:57:36.405Z,13.48
2022-10-08T04:00:03.897Z,13.55
2022-10-08T04:02:32.907Z,13.59
2022-10-08T04:05:01.505Z,13.57
2022-10-08T04:08:18.578Z,13.61
2022-10-08T04:10:52.454Z,13.62
2022-10-08T04:13:22.508Z,13.62
2022-10-08T04:15:51.801Z,13.65
2022-10-08T04:18:18.723Z,13.67
2022-10-08T04:20:51.603Z,13.67
2022-10-08T04:23:18.391Z,13.65
2022-10-08T04:26:15.382Z,13.62
2022-10-08T04:28:44.655Z,13.57
2022-10-08T04:31:17.059Z,13.56
2022-10-08T04:33:44.719Z,13.55
2022-10-08T04:36:14.986Z,13.58
2022-10-08T04:39:13.835Z,13.51
2022-10-08T04:41:40.732Z,13.45
2022-10-08T04:44:07.622Z,13.42
2022-10-08T04:46:42.723Z,13.36
2022-10-08T04:49:14.911Z,13.38
2022-10-08T04:51:41.790Z,13.37
2022-10-08T04:54:09.580Z,13.36
2022-10-08T04:56:36.874Z,13.35
2022-10-08T04:59:04.174Z,13.30
2022-10-08T05:01:33.098Z,13.32
2022-10-08T05:04:00.063Z,13.32
2022-10-08T05:06:29.484Z,13.22
2022-10-08T05:08:56.925Z,13.30
2022-10-08T05:11:24.785Z,13.30
2022-10-08T05:13:52.339Z,13.22
2022-10-08T05:16:20.074Z,13.21
2022-10-08T05:18:48.296Z,13.25
2022-10-08T05:21:16.337Z,13.25
2022-10-08T05:23:46.132Z,13.34
2022-10-08T05:26:13.048Z,13.30
2022-10-08T05:28:47.779Z,13.31
2022-10-08T05:31:18.027Z,13.31
2022-10-08T05:33:52.506Z,13.32
2022-10-08T05:36:30.091Z,13.33
2022-10-08T05:38:59.623Z,13.31
2022-10-08T05:41:33.597Z,13.28
2022-10-08T05:44:02.350Z,13.32
2022-10-08T05:46:41.585Z,13.31
2022-10-08T05:49:14.736Z,13.31
2022-10-08T05:51:49.202Z,13.33
2022-10-08T05:54:18.124Z,13.31
2022-10-08T05:56:45.270Z,13.32
2022-10-08T05:59:24.575Z,13.38
2022-10-08T06:01:52.611Z,13.43
2022-10-08T06:04:21.439Z,13.55
2022-10-08T06:06:51.510Z,13.58
2022-10-08T06:09:19.169Z,13.61
2022-10-08T06:11:48.368Z,13.67
2022-10-08T06:14:17.542Z,13.66
2022-10-08T06:16:44.505Z,13.69
2022-10-08T06:19:24.663Z,13.66
2022-10-08T06:22:01.394Z,13.77
2022-10-08T06:24:28.232Z,13.72
2022-10-08T06:26:56.026Z,13.74
2022-10-08T06:29:27.895Z,13.82
2022-10-08T06:31:58.915Z,13.97
2022-10-08T06:34:25.918Z,13.98
2022-10-08T06:36:52.834Z,14.18
2022-10-08T06:39:20.761Z,14.34
2022-10-08T06:41:53.877Z,14.36
2022-10-08T06:44:21.786Z,14.45
2022-10-08T06:46:50.749Z,14.62
2022-10-08T06:49:19.792Z,14.63
2022-10-08T06:51:53.481Z,14.63
2022-10-08T06:54:26.371Z,14.71
2022-10-08T06:56:56.137Z,14.83
2022-10-08T06:59:35.218Z,14.88
2022-10-08T07:02:07.211Z,14.93
2022-10-08T07:04:40.265Z,14.99
2022-10-08T07:07:09.209Z,15.06
2022-10-08T07:09:36.163Z,15.14
2022-10-08T07:12:21.910Z,15.25
2022-10-08T07:14:48.809Z,15.32
2022-10-08T07:17:16.612Z,15.46
2022-10-08T07:20:01.137Z,15.57
2022-10-08T07:22:28.102Z,15.65
2022-10-08T07:24:55.113Z,15.69
2022-10-08T07:27:31.193Z,15.77
2022-10-08T07:29:59.952Z,15.83
2022-10-08T07:32:27.752Z,15.91
2022-10-08T07:34:59.835Z,15.88
2022-10-08T07:37:37.143Z,16.01
2022-10-08T07:40:04.049Z,16.29
2022-10-08T07:42:38.057Z,16.43
2022-10-08T07:45:07.267Z,16.56
2022-10-08T07:47:46.617Z,16.71
2022-10-08T07:50:16.722Z,17.07
2022-10-08T07:52:43.663Z,17.28
2022-10-08T07:55:13.638Z,17.18
2022-10-08T07:57:42.586Z,17.15
2022-10-08T08:00:10.788Z,17.13
2022-10-08T08:02:48.243Z,17.30
2022-10-08T08:05:15.587Z,17.36
2022-10-08T08:08:00.611Z,17.27
2022-10-08T08:10:35.425Z,17.25
2022-10-08T08:13:12.450Z,17.47
2022-10-08T08:15:39.287Z,17.72
2022-10-08T08:18:06.114Z,17.81
2022-10-08T08:20:40.548Z,17.91
2022-10-08T08:23:08.573Z,18.08
2022-10-08T08:25:36.512Z,18.03
2022-10-08T08:28:03.425Z,18.28
2022-10-08T08:30:31.297Z,18.15
2022-10-08T08:32:58.199Z,18.35
2022-10-08T08:35:26.092Z,18.28
2022-10-08T08:37:58.765Z,18.50
2022-10-08T08:40:39.861Z,18.42
2022-10-08T08:43:08.132Z,18.48
2022-10-08T08:45:47.450Z,18.64
2022-10-08T08:48:25.554Z,18.82
2022-10-08T08:50:56.020Z,18.99
2022-10-08T08:53:24.029Z,18.90
2022-10-08T08:55:59.160Z,18.81
2022-10-08T08:58:35.110Z,19.19
2022-10-08T09:01:13.568Z,19.75
2022-10-08T09:03:48.536Z,20.49
2022-10-08T09:06:18.969Z,20.54
2022-10-08T09:08:50.794Z,19.97
2022-10-08T09:11:21.579Z,20.28
2022-10-08T09:13:48.353Z,19.90
2022-10-08T09:16:16.578Z,20.02
2022-10-08T09:18:52.088Z,20.30
2022-10-08T09:21:19.590Z,20.26
2022-10-08T09:23:47.553Z,20.20
2022-10-08T09:26:22.359Z,20.04
2022-10-08T09:28:50.634Z,20.27
2022-10-08T09:31:38.391Z,20.30
2022-10-08T09:34:06.351Z,20.63
2022-10-08T09:36:42.534Z,20.34
2022-10-08T09:39:38.635Z,20.21
2022-10-08T09:42:09.573Z,20.20
2022-10-08T09:44:43.490Z,20.28
2022-10-08T09:47:23.464Z,20.26
2022-10-08T09:50:05.192Z,20.19
2022-10-08T09:52:40.631Z,20.20
2022-10-08T09:55:12.245Z,19.86
2022-10-08T09:57:44.124Z,19.80
2022-10-08T10:00:33.164Z,19.68
2022-10-08T10:03:01.850Z,19.87
2022-10-08T10:05:36.436Z,19.88
2022-10-08T10:08:25.668Z,19.77
2022-10-08T10:10:52.531Z,19.89
2022-10-08T10:13:38.748Z,20.02
2022-10-08T10:16:13.313Z,20.06
2022-10-08T10:18:43.179Z,20.17
2022-10-08T10:21:16.409Z,20.14
2022-10-08T10:23:54.335Z,20.02
2022-10-08T10:26:27.916Z,19.92
2022-10-08T10:29:01.408Z,20.10
2022-10-08T10:31:35.948Z,20.31
2022-10-08T10:34:07.686Z,20.63
2022-10-08T10:36:42.381Z,20.55
2022-10-08T10:39:11.167Z,20.64
2022-10-08T10:41:43.458Z,20.92
2022-10-08T10:44:19.791Z,20.73
2022-10-08T10:46:49.901Z,20.95
2022-10-08T10:49:19.119Z,20.84
2022-10-08T10:51:58.453Z,20.67
2022-10-08T10:54:29.308Z,20.47
2022-10-08T10:57:01.254Z,20.90
2022-10-08T10:59:40.233Z,20.94
2022-10-08T11:02:12.242Z,21.06
2022-10-08T11:04:40.294Z,21.25
2022-10-08T11:07:19.285Z,21.26
2022-10-08T11:09:47.097Z,21.52
2022-10-08T11:12:34.143Z,21.79
2022-10-08T11:15:21.622Z,21.90
2022-10-08T11:17:58.453Z,22.20
2022-10-08T11:20:25.321Z,22.43
2022-10-08T11:23:12.027Z,22.56
2022-10-08T11:26:16.466Z,22.75
2022-10-08T11:29:07.973Z,23.11
2022-10-08T11:31:56.907Z,23.14
2022-10-08T11:34:32.424Z,23.27
2022-10-08T11:37:00.390Z,23.17
2022-10-08T11:39:31.376Z,23.26
2022-10-08T11:42:48.112Z,23.45
2022-10-08T11:45:35.706Z,23.40
2022-10-08T11:48:24.728Z,23.59
2022-10-08T11:50:54.618Z,23.34
2022-10-08T11:53:22.614Z,23.11
2022-10-08T11:56:03.213Z,23.20
2022-10-08T11:58:31.928Z,23.47
2022-10-08T12:01:08.205Z,22.84
2022-10-08T12:03:40.463Z,22.37
2022-10-08T12:06:27.120Z,22.95
2022-10-08T12:08:58.929Z,24.36
2022-10-08T12:11:37.734Z,25.37
2022-10-08T12:14:14.718Z,26.19
2022-10-08T12:17:00.195Z,26.47
2022-10-08T12:19:40.366Z,25.78
2022-10-08T12:22:08.183Z,25.06
2022-10-08T12:24:39.164Z,23.64
2022-10-08T12:27:22.067Z,23.36
2022-10-08T12:30:07.605Z,22.43
2022-10-08T12:32:54.667Z,21.96
2022-10-08T12:35:32.163Z,21.76
2022-10-08T12:38:05.174Z,21.97
2022-10-08T12:40:56.396Z,22.65
2022-10-08T12:43:36.064Z,22.67
2022-10-08T12:46:35.724Z,22.32
2022-10-08T12:49:32.090Z,21.20
2022-10-08T12:52:17.840Z,20.64
2022-10-08T12:54:58.831Z,20.27
2022-10-08T12:57:34.896Z,20.27
2022-10-08T13:00:11.475Z,19.73
2022-10-08T13:02:41.236Z,19.93
2022-10-08T13:05:39.394Z,20.15
2022-10-08T13:08:36.322Z,20.02
2022-10-08T13:11:11.075Z,20.25
2022-10-08T13:13:43.902Z,20.22
2022-10-08T13:16:21.530Z,20.19
2022-10-08T13:18:55.109Z,20.57
2022-10-08T13:21:26.320Z,20.49
2022-10-08T13:23:53.490Z,20.32
2022-10-08T13:26:39.517Z,20.22
2022-10-08T13:29:18.585Z,20.02
2022-10-08T13:31:48.637Z,19.99
2022-10-08T13:34:18.682Z,20.01
2022-10-08T13:36:53.692Z,20.22
2022-10-08T13:39:22.848Z,20.95
2022-10-08T13:41:55.045Z,21.14
2022-10-08T13:44:22.091Z,21.29
2022-10-08T13:46:49.953Z,21.32
2022-10-08T13:49:24.385Z,21.31
2022-10-08T13:51:53.639Z,21.07
2022-10-08T13:54:59.381Z,20.74
2022-10-08T13:57:26.306Z,20.52
2022-10-08T14:00:02.161Z,20.34
2022-10-08T14:02:36.076Z,20.29
2022-10-08T14:05:03.984Z,20.24
2022-10-08T14:07:33.022Z,20.29
2022-10-08T14:10:08.835Z,20.11
2022-10-08T14:13:03.317Z,19.94
2022-10-08T14:15:44.374Z,19.88
2022-10-08T14:18:12.366Z,19.71
2022-10-08T14:20:52.532Z,19.59
2022-10-08T14:23:20.501Z,19.87
2022-10-08T14:25:49.501Z,19.96
2022-10-08T14:28:16.457Z,20.01
2022-10-08T14:30:54.789Z,19.94
2022-10-08T14:33:21.635Z,20.01
2022-10-08T14:35:54.721Z,20.06
2022-10-08T14:38:21.735Z,20.12
2022-10-08T14:40:50.851Z,20.10
2022-10-08T14:43:27.520Z,19.82
2022-10-08T14:45:54.856Z,19.66
2022-10-08T14:48:39.897Z,19.83
2022-10-08T14:51:12.920Z,19.93
2022-10-08T14:53:54.151Z,20.02
2022-10-08T14:56:22.975Z,19.89
2022-10-08T14:58:55.882Z,19.99
2022-10-08T15:01:39.236Z,20.05
2022-10-08T15:04:41.357Z,20.04
2022-10-08T15:07:17.590Z,19.96
2022-10-08T15:09:51.456Z,19.92
2022-10-08T15:12:19.472Z,19.93
2022-10-08T15:14:48.333Z,19.56
2022-10-08T15:17:16.355Z,18.91
2022-10-08T15:19:43.229Z,18.42
2022-10-08T15:22:10.209Z,18.51
2022-10-08T15:24:37.113Z,18.34
2022-10-08T15:27:06.878Z,18.10
2022-10-08T15:29:34.713Z,18.07
2022-10-08T15:32:02.751Z,17.96
2022-10-08T15:34:30.668Z,17.75
2022-10-08T15:37:32.920Z,17.59
2022-10-08T15:39:59.798Z,17.60
2022-10-08T15:42:26.617Z,17.40
2022-10-08T15:44:53.988Z,17.47
2022-10-08T15:47:22.899Z,17.41
2022-10-08T15:49:51.862Z,17.51
2022-10-08T15:52:30.773Z,17.39
2022-10-08T15:55:28.915Z,17.37
2022-10-08T15:57:55.881Z,17.24
2022-10-08T16:00:40.792Z,17.16
2022-10-08T16:03:43.606Z,17.31
2022-10-08T16:06:22.269Z,17.30
2022-10-08T16:09:07.499Z,17.36
2022-10-08T16:11:55.682Z,17.20
2022-10-08T16:14:26.347Z,17.22
2022-10-08T16:16:58.884Z,17.15
2022-10-08T16:19:35.874Z,16.97
2022-10-08T16:22:02.675Z,16.78
2022-10-08T16:24:39.686Z,16.92
2022-10-08T16:27:08.735Z,16.80
2022-10-08T16:29:36.591Z,16.67
2022-10-08T16:32:41.362Z,16.80
2022-10-08T16:35:08.302Z,16.66
2022-10-08T16:38:03.771Z,16.62
2022-10-08T16:40:30.557Z,16.66
2022-10-08T16:43:00.518Z,16.70
2022-10-08T16:45:39.986Z,16.62
2022-10-08T16:48:08.612Z,16.54
2022-10-08T16:50:46.634Z,16.48
2022-10-08T16:53:13.888Z,16.35
2022-10-08T16:55:42.762Z,16.30
2022-10-08T16:58:15.841Z,16.17
2022-10-08T17:00:46.783Z,16.25
2022-10-08T17:03:14.655Z,16.20
2022-10-08T17:05:44.636Z,16.11
2022-10-08T17:08:11.425Z,16.08
2022-10-08T17:10:39.374Z,16.04
2022-10-08T17:13:06.667Z,15.88
2022-10-08T17:15:33.474Z,15.81
2022-10-08T17:18:00.329Z,15.94
2022-10-08T17:20:28.413Z,16.07
2022-10-08T17:22:59.290Z,15.95
2022-10-08T17:25:26.611Z,16.20
2022-10-08T17:27:54.997Z,16.37
2022-10-08T17:30:27.337Z,16.45
2022-10-08T17:32:56.065Z,16.51
2022-10-08T17:35:25.233Z,16.45
2022-10-08T17:37:56.292Z,16.40
2022-10-08T17:40:25.023Z,16.45
2022-10-08T17:43:20.892Z,16.35
2022-10-08T17:45:49.412Z,16.26
2022-10-08T17:48:16.376Z,16.13
2022-10-08T17:50:53.074Z,16.15
2022-10-08T17:53:19.929Z,15.89
2022-10-08T17:56:04.395Z,15.90
2022-10-08T17:58:38.065Z,15.93
2022-10-08T18:01:09.256Z,15.91
2022-10-08T18:03:38.271Z,16.03
2022-10-08T18:06:10.537Z,16.00
2022-10-08T18:08:37.892Z,15.94
2022-10-08T18:11:06.872Z,16.04
2022-10-08T18:13:38.125Z,16.06
2022-10-08T18:16:09.423Z,16.02
2022-10-08T18:18:37.776Z,16.12
2022-10-08T18:21:06.010Z,16.06
2022-10-08T18:23:34.247Z,16.02
2022-10-08T18:26:24.835Z,15.99
2022-10-08T18:28:53.198Z,15.88
2022-10-08T18:31:28.424Z,15.97
2022-10-08T18:34:07.784Z,16.01
2022-10-08T18:36:44.499Z,15.97
2022-10-08T18:39:18.413Z,15.93
2022-10-08T18:41:49.333Z,15.81
2022-10-08T18:44:24.605Z,15.78
2022-10-08T18:46:51.915Z,15.73
2022-10-08T18:49:19.963Z,15.66
2022-10-08T18:51:59.013Z,15.67
2022-10-08T18:54:26.150Z,15.66
2022-10-08T18:57:09.994Z,15.66
2022-10-08T18:59:37.920Z,15.68
2022-10-08T19:02:05.983Z,15.69
2022-10-08T19:04:33.131Z,15.61
2022-10-08T19:07:09.355Z,15.65
2022-10-08T19:09:37.402Z,15.70
2022-10-08T19:12:22.533Z,15.68
2022-10-08T19:14:52.423Z,15.64
2022-10-08T19:17:19.621Z,15.55
2022-10-08T19:19:47.891Z,15.31
2022-10-08T19:22:15.268Z,15.49
2022-10-08T19:24:58.776Z,15.54
2022-10-08T19:27:28.005Z,15.40
2022-10-08T19:30:01.452Z,15.41
2022-10-08T19:32:28.846Z,15.44
2022-10-08T19:34:56.553Z,15.47
2022-10-08T19:37:26.837Z,15.39
2022-10-08T19:39:59.562Z,15.37
2022-10-08T19:42:26.851Z,15.34
2022-10-08T19:44:57.666Z,15.22
2022-10-08T19:47:28.497Z,15.33
2022-10-08T19:50:04.086Z,15.13
2022-10-08T19:52:32.894Z,15.31
2022-10-08T19:55:09.316Z,15.23
2022-10-08T19:57:49.545Z,15.23
2022-10-08T20:00:16.722Z,15.08
2022-10-08T20:02:43.598Z,15.19
2022-10-08T20:05:10.703Z,15.12
2022-10-08T20:07:43.577Z,15.16
2022-10-08T20:10:19.587Z,15.16
2022-10-08T20:12:47.388Z,15.12
2022-10-08T20:15:14.479Z,15.03
2022-10-08T20:17:43.312Z,15.02
2022-10-08T20:20:31.839Z,14.99
2022-10-08T20:22:58.030Z,14.88
2022-10-08T20:25:25.202Z,14.79
2022-10-08T20:27:52.405Z,14.69
2022-10-08T20:30:19.392Z,14.65
2022-10-08T20:32:46.490Z,14.57
2022-10-08T20:35:27.897Z,14.48
2022-10-08T20:37:54.900Z,14.46
2022-10-08T20:40:26.791Z,14.41
2022-10-08T20:42:53.699Z,14.37
2022-10-08T20:45:20.667Z,14.33
2022-10-08T20:48:18.063Z,14.29
2022-10-08T20:50:46.969Z,14.23
2022-10-08T20:53:48.878Z,14.15
2022-10-08T20:56:40.558Z,14.10
2022-10-08T20:59:08.222Z,14.03
2022-10-08T21:01:38.591Z,14.05
2022-10-08T21:04:12.722Z,14.01
2022-10-08T21:07:08.243Z,13.96
2022-10-08T21:09:37.199Z,13.88
2022-10-08T21:12:12.229Z,13.90
2022-10-08T21:14:39.246Z,13.88
2022-10-08T21:17:06.277Z,13.93
2022-10-08T21:19:34.178Z,13.91
2022-10-08T21:22:01.267Z,13.86
2022-10-08T21:24:28.224Z,13.80
2022-10-08T21:26:55.219Z,13.78
2022-10-08T21:29:23.332Z,13.69
2022-10-08T21:31:51.195Z,13.61
2022-10-08T21:34:18.127Z,13.40
2022-10-08T21:36:45.130Z,13.32
2022-10-08T21:39:16.649Z,13.23
2022-10-08T21:41:46.105Z,13.15
2022-10-08T21:44:13.645Z,13.04
2022-10-08T21:46:42.407Z,13.07
2022-10-08T21:49:12.814Z,12.97
2022-10-08T21:51:39.787Z,12.91
2022-10-08T21:54:07.222Z,12.87
2022-10-08T21:56:42.736Z,12.86
2022-10-08T21:59:11.598Z,12.76
2022-10-08T22:02:02.238Z,12.83
2022-10-08T22:04:32.070Z,12.80
2022-10-08T22:07:04.076Z,12.73
2022-10-08T22:09:32.277Z,12.66
2022-10-08T22:12:00.782Z,12.64
2022-10-08T22:14:27.857Z,12.46
2022-10-08T22:17:00.880Z,12.50
2022-10-08T22:19:27.813Z,12.38
2022-10-08T22:22:00.652Z,12.37
2022-10-08T22:24:27.608Z,12.36
2022-10-08T22:26:56.450Z,12.25
2022-10-08T22:29:23.388Z,12.17
2022-10-08T22:31:51.287Z,12.17
2022-10-08T22:34:21.296Z,12.09
2022-10-08T22:36:48.075Z,12.11
2022-10-08T22:39:18.063Z,11.98
2022-10-08T22:41:47.024Z,11.80
2022-10-08T22:44:13.814Z,11.64
2022-10-08T22:46:40.822Z,11.55
2022-10-08T22:49:32.167Z,11.46
2022-10-08T22:52:04.892Z,11.36
2022-10-08T22:54:32.714Z,11.30
2022-10-08T22:57:07.838Z,11.35
2022-10-08T22:59:35.807Z,11.51
2022-10-08T23:02:03.460Z,11.60
2022-10-08T23:04:32.376Z,11.28
2022-10-08T23:07:02.181Z,10.98
2022-10-08T23:09:30.012Z,11.00
2022-10-08T23:11:57.814Z,10.95
2022-10-08T23:14:28.797Z,10.80
2022-10-08T23:16:56.678Z,10.73
2022-10-08T23:19:23.535Z,10.61
2022-10-08T23:21:52.432Z,10.40
2022-10-08T23:24:21.450Z,10.24
2022-10-08T23:26:52.411Z,10.12
2022-10-08T23:29:19.364Z,10.05
2022-10-08T23:31:48.398Z,9.76
2022-10-08T23:34:17.397Z,9.62
2022-10-08T23:36:59.324Z,9.55
2022-10-08T23:39:29.610Z,9.57
2022-10-08T23:41:57.505Z,9.50
2022-10-08T23:44:26.512Z,9.43
2022-10-08T23:46:53.344Z,9.58
2022-10-08T23:49:22.218Z,9.65
2022-10-08T23:51:49.227Z,9.70
2022-10-08T23:54:40.362Z,9.66
2022-10-08T23:57:09.268Z,9.70
2022-10-08T23:59:38.151Z,9.65
